Time;durP1;ratioP1;P1;durP2;ratioP2;P2;SDS_P1;SDS_P2;PMS_P1;PMS_P2;Temp;Humidity;BMP_temperature;BMP_pressure;BME280_temperature;BME280_humidity;BME280_pressure;Samples;Min_cycle;Max_cycle;Signal;HPM_P1;HPM_P2
2022/07/24 00:01:53;;;;;;;12.57;7.38;;;;;;;22.17;43.20;94937.22;5125072;27;20035;-75
2022/07/24 00:04:18;;;;;;;11.38;7.30;;;;;;;22.08;43.55;94935.75;5128702;27;20043;-75
2022/07/24 00:06:44;;;;;;;14.27;7.47;;;;;;;22.05;43.74;94922.91;5128125;27;20045;-75
2022/07/24 00:09:09;;;;;;;11.35;6.65;;;;;;;22.01;43.70;94938.38;5130345;27;20037;-75
2022/07/24 00:11:35;;;;;;;10.43;6.57;;;;;;;21.94;43.99;94941.97;5140549;27;20035;-75
2022/07/24 00:14:00;;;;;;;11.18;7.65;;;;;;;21.74;44.15;94932.09;5130253;27;20488;-75
2022/07/24 00:16:26;;;;;;;12.68;6.75;;;;;;;21.71;44.60;94937.75;5129985;27;20035;-75
2022/07/24 00:18:51;;;;;;;12.52;6.55;;;;;;;21.70;44.64;94944.03;5112274;28;20042;-75
2022/07/24 00:21:17;;;;;;;19.45;8.57;;;;;;;21.61;44.80;94937.28;5096799;28;20035;-75
2022/07/24 00:23:43;;;;;;;11.43;6.90;;;;;;;21.58;44.84;94941.13;5110235;28;20073;-75
2022/07/24 00:26:09;;;;;;;13.70;7.38;;;;;;;21.54;44.71;94936.44;5112655;28;20031;-75
2022/07/24 00:28:34;;;;;;;12.35;6.97;;;;;;;21.52;45.03;94933.16;5115986;27;20036;-75
2022/07/24 00:31:00;;;;;;;10.38;7.22;;;;;;;21.45;45.24;94938.38;5107020;28;20030;-75
2022/07/24 00:33:25;;;;;;;11.93;7.05;;;;;;;21.38;45.60;94937.50;5106658;28;20100;-76
2022/07/24 00:35:51;;;;;;;12.55;7.50;;;;;;;21.28;46.07;94937.78;5124662;28;20027;-75
2022/07/24 00:38:16;;;;;;;11.90;7.72;;;;;;;21.21;46.23;94926.38;5124574;27;20023;-75
2022/07/24 00:40:42;;;;;;;12.63;7.45;;;;;;;21.13;46.18;94929.13;5110786;28;20047;-75
2022/07/24 00:43:07;;;;;;;13.63;7.10;;;;;;;21.12;46.21;94930.97;5122130;28;20083;-75
2022/07/24 00:45:33;;;;;;;12.48;7.28;;;;;;;21.07;46.20;94924.63;5099088;28;20028;-75
2022/07/24 00:47:58;;;;;;;12.40;7.38;;;;;;;21.08;46.09;94928.88;5075853;28;20036;-75
2022/07/24 00:50:24;;;;;;;14.02;7.80;;;;;;;21.11;45.92;94928.50;5110700;28;20084;-75
2022/07/24 00:52:50;;;;;;;11.40;7.25;;;;;;;21.08;45.88;94920.94;5093808;28;20059;-75
2022/07/24 00:55:15;;;;;;;14.00;7.20;;;;;;;21.11;45.67;94926.66;5095534;28;20027;-75
2022/07/24 00:57:45;;;;;;;15.70;7.20;;;;;;;21.14;45.71;94925.47;5112733;27;20035;-75
2022/07/24 01:00:11;;;;;;;14.40;7.45;;;;;;;21.08;45.53;94932.31;5135296;27;20051;-75
2022/07/24 01:02:39;;;;;;;13.18;7.22;;;;;;;21.08;45.54;94929.69;5101911;28;20039;-75
2022/07/24 01:05:06;;;;;;;11.13;7.55;;;;;;;21.17;45.36;94933.00;5113486;27;20038;-75
2022/07/24 01:07:31;;;;;;;10.48;7.20;;;;;;;21.14;45.31;94930.75;5104747;28;20059;-75
2022/07/24 01:09:56;;;;;;;12.88;7.55;;;;;;;21.12;45.00;94930.97;5096523;28;20031;-75
2022/07/24 01:12:22;;;;;;;15.07;7.15;;;;;;;21.07;44.66;94927.25;5115474;27;20030;-75
2022/07/24 01:14:47;;;;;;;14.15;7.00;;;;;;;21.00;44.93;94919.25;5120373;27;20042;-75
2022/07/24 01:17:13;;;;;;;11.48;7.03;;;;;;;21.04;44.95;94925.81;5127640;27;20039;-75
2022/07/24 01:19:38;;;;;;;11.15;7.07;;;;;;;20.90;45.21;94924.84;5112318;28;20024;-75
2022/07/24 01:22:04;;;;;;;12.35;6.85;;;;;;;20.88;44.98;94918.94;5119608;27;20023;-75
2022/07/24 01:24:29;;;;;;;12.23;7.18;;;;;;;20.94;45.03;94923.47;5108081;28;20421;-75
2022/07/24 01:26:55;;;;;;;12.65;6.95;;;;;;;20.94;44.53;94925.28;5120769;27;20038;-75
2022/07/24 01:29:20;;;;;;;11.13;6.40;;;;;;;20.98;44.58;94916.00;5112905;27;20035;-75
2022/07/24 01:31:46;;;;;;;12.00;7.03;;;;;;;20.99;44.59;94917.63;5097279;28;20470;-75
2022/07/24 01:34:12;;;;;;;11.32;7.22;;;;;;;20.98;44.53;94922.09;5115489;27;20027;-75
2022/07/24 01:36:38;;;;;;;15.68;7.10;;;;;;;20.99;44.26;94917.63;5113020;28;20027;-75
2022/07/24 01:39:04;;;;;;;15.75;7.07;;;;;;;20.94;44.67;94912.91;5092801;27;20413;-75
2022/07/24 01:41:29;;;;;;;14.20;6.68;;;;;;;20.90;44.17;94916.94;5112897;28;20494;-75
2022/07/24 01:43:55;;;;;;;9.18;6.63;;;;;;;20.74;45.66;94927.72;5095770;28;20093;-75
2022/07/24 01:46:20;;;;;;;12.30;6.93;;;;;;;20.81;45.35;94925.16;5132141;27;20023;-75
2022/07/24 01:48:45;;;;;;;14.07;6.82;;;;;;;20.76;44.77;94915.16;5132997;27;20500;-74
2022/07/24 01:51:11;;;;;;;13.20;7.15;;;;;;;20.68;44.91;94918.75;5127134;27;20553;-75
2022/07/24 01:53:36;;;;;;;18.40;7.38;;;;;;;20.64;45.29;94914.81;5120576;27;20039;-75
2022/07/24 01:56:02;;;;;;;14.50;7.53;;;;;;;20.66;44.83;94918.09;5112017;28;20111;-75
2022/07/24 01:58:27;;;;;;;11.98;7.15;;;;;;;20.64;44.72;94914.00;5107401;27;20035;-75
2022/07/24 02:00:53;;;;;;;13.20;6.75;;;;;;;20.68;44.44;94915.28;5100577;28;20505;-75
2022/07/24 02:03:19;;;;;;;14.32;7.15;;;;;;;20.62;44.62;94895.75;5098629;27;20050;-75
2022/07/24 02:05:44;;;;;;;14.80;7.32;;;;;;;20.73;44.20;94899.72;5132634;27;20053;-75
2022/07/24 02:08:10;;;;;;;11.82;6.63;;;;;;;20.81;43.48;94891.69;5111581;28;20179;-75
2022/07/24 02:10:35;;;;;;;16.75;7.03;;;;;;;20.85;44.07;94900.03;5115204;27;20019;-75
2022/07/24 02:13:00;;;;;;;11.48;6.82;;;;;;;20.86;44.13;94905.09;5115820;27;20485;-75
2022/07/24 02:15:26;;;;;;;16.17;7.15;;;;;;;20.89;43.42;94906.56;5123763;27;20047;-75
2022/07/24 02:17:54;;;;;;;12.05;7.28;;;;;;;20.97;43.71;94901.16;5128383;27;20530;-75
2022/07/24 02:20:20;;;;;;;16.40;7.00;;;;;;;20.96;44.81;94902.97;5113116;27;20036;-75
2022/07/24 02:22:46;;;;;;;15.77;6.75;;;;;;;20.96;44.16;94902.97;5112462;27;20039;-75
2022/07/24 02:25:11;;;;;;;13.77;7.07;;;;;;;20.96;44.08;94908.25;5096276;28;20542;-75
2022/07/24 02:27:37;;;;;;;11.30;6.80;;;;;;;20.98;43.62;94900.16;5125088;27;20041;-75
2022/07/24 02:30:04;;;;;;;12.38;7.20;;;;;;;21.05;44.08;94916.06;5130521;27;20036;-75
2022/07/24 02:32:30;;;;;;;11.80;7.03;;;;;;;20.91;44.18;94900.06;5092788;27;20047;-75
2022/07/24 02:34:55;;;;;;;13.55;6.70;;;;;;;20.87;44.37;94898.84;5132288;27;20031;-74
2022/07/24 02:37:21;;;;;;;11.93;7.22;;;;;;;20.87;44.58;94895.38;5132011;27;20028;-75
2022/07/24 02:39:46;;;;;;;12.15;7.53;;;;;;;20.86;44.33;94897.19;5130101;27;20039;-75
2022/07/24 02:42:11;;;;;;;11.02;7.25;;;;;;;20.78;44.75;94894.66;5114677;27;20091;-75
2022/07/24 02:44:37;;;;;;;11.73;7.10;;;;;;;20.75;44.74;94890.59;5113518;27;20412;-75
2022/07/24 02:47:02;;;;;;;11.90;7.18;;;;;;;20.67;44.75;94895.16;5114979;27;20028;-75
2022/07/24 02:49:28;;;;;;;15.30;6.85;;;;;;;20.68;44.82;94904.72;5114053;27;20055;-75
2022/07/24 02:51:54;;;;;;;12.63;7.53;;;;;;;20.53;45.11;94899.47;5102528;27;20035;-75
2022/07/24 02:54:19;;;;;;;9.25;6.97;;;;;;;20.48;45.21;94900.03;5121372;27;20031;-75
2022/07/24 02:56:44;;;;;;;14.15;7.22;;;;;;;20.46;45.36;94899.38;5123580;27;20031;-75
2022/07/24 02:59:10;;;;;;;11.60;7.45;;;;;;;20.37;45.44;94886.50;5118250;27;20100;-75
2022/07/24 03:01:35;;;;;;;12.13;7.10;;;;;;;20.35;45.59;94891.94;5114512;27;20458;-75
2022/07/24 03:04:01;;;;;;;13.77;7.13;;;;;;;20.31;45.45;94896.78;5132789;27;20057;-75
2022/07/24 03:06:26;;;;;;;13.27;7.30;;;;;;;20.32;45.48;94884.41;5129966;27;20035;-75
2022/07/24 03:08:52;;;;;;;14.77;7.53;;;;;;;20.41;45.46;94899.13;5131480;27;20405;-75
2022/07/24 03:11:17;;;;;;;13.38;7.25;;;;;;;20.35;45.36;94886.66;5102138;28;20421;-75
2022/07/24 03:13:43;;;;;;;16.08;7.72;;;;;;;20.38;45.54;94891.56;5111065;28;20038;-75
2022/07/24 03:16:08;;;;;;;11.55;7.15;;;;;;;20.35;45.68;94884.03;5113124;27;20023;-75
2022/07/24 03:18:33;;;;;;;11.35;7.20;;;;;;;20.44;45.64;94903.22;5103048;28;20108;-75
2022/07/24 03:20:59;;;;;;;14.00;7.25;;;;;;;20.46;45.46;94898.56;5113186;27;20023;-75
2022/07/24 03:23:24;;;;;;;12.85;7.63;;;;;;;20.46;45.50;94893.28;5122608;27;20508;-75
2022/07/24 03:25:50;;;;;;;14.30;7.70;;;;;;;20.50;45.75;94894.53;5094591;27;20432;-75
2022/07/24 03:28:15;;;;;;;11.43;7.30;;;;;;;20.46;45.92;94898.56;5111637;27;20158;-75
2022/07/24 03:30:41;;;;;;;14.88;7.65;;;;;;;20.42;46.11;94889.38;5131010;27;20027;-75
2022/07/24 03:33:06;;;;;;;14.50;7.90;;;;;;;20.48;46.05;94904.47;5114167;27;20058;-75
2022/07/24 03:35:32;;;;;;;12.32;7.10;;;;;;;20.45;46.00;94905.69;5117971;27;20035;-75
2022/07/24 03:37:57;;;;;;;16.02;7.53;;;;;;;20.44;46.15;94908.47;5110711;28;20410;-75
2022/07/24 03:40:23;;;;;;;11.65;7.72;;;;;;;20.37;46.21;94897.06;5111846;27;20413;-75
2022/07/24 03:42:48;;;;;;;12.25;6.97;;;;;;;20.39;46.27;94914.31;5125183;27;20222;-75
2022/07/24 03:45:14;;;;;;;12.98;7.80;;;;;;;20.28;46.83;94914.78;5110766;28;20412;-75
2022/07/24 03:47:39;;;;;;;13.13;7.25;;;;;;;20.35;46.63;94920.16;5110603;28;20390;-75
2022/07/24 03:50:05;;;;;;;13.70;6.93;;;;;;;20.41;46.80;94914.94;5111501;27;20031;-75
2022/07/24 03:52:30;;;;;;;15.30;7.45;;;;;;;20.33;47.21;94920.31;5110191;28;20044;-75
2022/07/24 03:54:56;;;;;;;11.93;7.63;;;;;;;20.41;47.14;94929.97;5128936;27;20028;-75
2022/07/24 03:57:21;;;;;;;14.02;7.82;;;;;;;20.41;47.36;94920.22;5106683;27;20023;-75
2022/07/24 03:59:47;;;;;;;9.95;7.00;;;;;;;20.43;47.58;94914.78;5113389;27;20539;-75
2022/07/24 04:02:12;;;;;;;12.40;6.72;;;;;;;20.53;47.54;94910.03;5131975;27;20023;-75
2022/07/24 04:04:38;;;;;;;13.82;7.43;;;;;;;20.58;47.38;94915.56;5130578;27;20117;-75
2022/07/24 04:07:03;;;;;;;11.35;7.40;;;;;;;20.49;47.64;94909.56;5128936;27;20046;-74
2022/07/24 04:09:28;;;;;;;10.20;7.45;;;;;;;20.70;47.47;94908.81;5096520;27;20095;-75
2022/07/24 04:11:54;;;;;;;10.45;7.50;;;;;;;20.78;47.11;94899.94;5129094;27;20486;-75
2022/07/24 04:14:19;;;;;;;13.85;8.00;;;;;;;21.00;46.79;94905.22;5101452;28;20390;-75
2022/07/24 04:16:46;;;;;;;12.63;7.47;;;;;;;21.37;46.12;94902.34;5125195;27;20035;-75
2022/07/24 04:19:12;;;;;;;13.48;8.73;;;;;;;22.49;43.33;94900.56;5130707;27;20038;-75
2022/07/24 04:21:37;;;;;;;12.43;7.63;;;;;;;23.69;40.68;94898.06;5121458;27;20031;-75
2022/07/24 04:24:03;;;;;;;11.95;7.53;;;;;;;24.68;38.72;94907.59;5125120;27;20035;-75
2022/07/24 04:26:28;;;;;;;13.40;7.57;;;;;;;25.74;36.67;94906.06;5126718;27;20027;-75
2022/07/24 04:28:54;;;;;;;11.50;7.35;;;;;;;26.33;35.08;94899.34;5128812;28;20493;-75
2022/07/24 04:31:19;;;;;;;14.02;7.47;;;;;;;26.93;34.36;94903.94;5128823;27;20023;-75
2022/07/24 04:33:45;;;;;;;16.52;7.53;;;;;;;27.83;33.40;94913.66;5117996;27;20043;-75
2022/07/24 04:36:10;;;;;;;12.85;7.63;;;;;;;28.21;32.42;94907.81;5109477;27;20175;-75
2022/07/24 04:38:36;;;;;;;10.43;6.53;;;;;;;28.50;32.65;94908.72;5113764;28;20031;-75
2022/07/24 04:41:01;;;;;;;14.20;8.05;;;;;;;29.14;30.59;94899.78;5115268;27;20024;-75
2022/07/24 04:43:26;;;;;;;9.18;6.50;;;;;;;29.46;30.36;94909.97;5105627;27;20374;-75
2022/07/24 04:45:52;;;;;;;11.88;7.38;;;;;;;29.67;30.52;94901.25;5134258;27;20481;-75
2022/07/24 04:48:17;;;;;;;15.65;8.13;;;;;;;29.83;30.00;94889.69;5113109;28;20122;-75
2022/07/24 04:50:43;;;;;;;14.38;7.65;;;;;;;29.10;31.19;94909.34;5113515;28;20096;-75
2022/07/24 04:53:08;;;;;;;13.82;7.82;;;;;;;29.54;31.24;94910.38;5116293;27;20519;-75
2022/07/24 04:55:34;;;;;;;12.43;8.27;;;;;;;29.67;30.60;94906.59;5112345;28;20023;-75
2022/07/24 04:57:59;;;;;;;14.32;8.13;;;;;;;29.90;29.92;94920.84;5113817;27;20031;-75
2022/07/24 05:00:25;;;;;;;11.38;7.07;;;;;;;29.39;29.34;94908.25;5095420;27;20043;-75
2022/07/24 05:02:50;;;;;;;11.20;7.60;;;;;;;27.95;33.25;94924.34;5118213;27;20028;-75
2022/07/24 05:05:15;;;;;;;11.23;8.00;;;;;;;26.24;37.03;94920.13;5114859;27;20508;-75
2022/07/24 05:07:41;;;;;;;16.95;7.88;;;;;;;25.96;37.93;94925.13;5127784;27;20489;-75
2022/07/24 05:10:07;;;;;;;14.90;8.05;;;;;;;25.81;38.05;94936.88;5116726;27;20043;-75
2022/07/24 05:12:32;;;;;;;14.20;8.25;;;;;;;25.58;38.40;94942.00;5125424;27;20023;-75
2022/07/24 05:14:58;;;;;;;15.00;7.85;;;;;;;25.48;38.82;94944.34;5132787;27;20504;-75
2022/07/24 05:17:23;;;;;;;13.77;8.52;;;;;;;25.36;38.31;94926.44;5133118;27;20076;-75
2022/07/24 05:19:48;;;;;;;14.90;8.63;;;;;;;25.35;39.01;94934.59;5134653;27;20043;-75
2022/07/24 05:22:14;;;;;;;16.58;8.43;;;;;;;25.46;39.04;94933.91;5154535;27;20027;-75
2022/07/24 05:24:39;;;;;;;12.00;7.85;;;;;;;25.62;39.14;94935.22;5154577;27;20046;-75
2022/07/24 05:27:05;;;;;;;15.15;8.57;;;;;;;25.52;39.02;94938.38;5154601;27;20037;-75
2022/07/24 05:29:30;;;;;;;11.88;7.78;;;;;;;25.58;37.68;94939.34;5155523;27;20507;-75
2022/07/24 05:31:56;;;;;;;16.75;8.80;;;;;;;25.19;40.11;94936.78;5098165;28;20088;-75
2022/07/24 05:34:22;;;;;;;16.15;8.45;;;;;;;24.95;40.19;94940.97;5113169;28;20039;-75
2022/07/24 05:36:47;;;;;;;13.43;8.27;;;;;;;24.82;40.82;94935.72;5106655;27;20035;-75
2022/07/24 05:39:13;;;;;;;15.73;8.77;;;;;;;25.10;40.08;94932.72;5133739;27;20408;-75
2022/07/24 05:41:38;;;;;;;14.15;7.90;;;;;;;25.33;38.52;94939.34;5132746;27;20503;-75
2022/07/24 05:44:04;;;;;;;15.35;8.73;;;;;;;25.38;39.06;94932.34;5116143;27;20421;-75
2022/07/24 05:46:29;;;;;;;14.10;8.15;;;;;;;25.51;38.53;94933.25;5133085;27;20087;-75
2022/07/24 05:48:54;;;;;;;18.90;8.60;;;;;;;25.57;37.71;94938.50;5116351;27;20091;-75
2022/07/24 05:51:20;;;;;;;12.32;7.63;;;;;;;25.83;37.53;94931.41;5134641;27;20034;-75
2022/07/24 05:53:45;;;;;;;15.52;7.18;;;;;;;25.95;35.44;94934.16;5133267;27;20092;-75
2022/07/24 05:56:11;;;;;;;14.77;7.70;;;;;;;26.10;36.19;94929.28;5133049;27;20019;-75
2022/07/24 05:58:36;;;;;;;13.30;7.57;;;;;;;26.26;36.11;94923.38;5133900;27;20042;-76
2022/07/24 06:01:02;;;;;;;12.90;7.80;;;;;;;26.40;35.97;94920.56;5133973;27;20054;-75
2022/07/24 06:03:27;;;;;;;11.95;7.43;;;;;;;26.49;35.03;94917.38;5115911;27;20035;-75
2022/07/24 06:05:53;;;;;;;14.63;7.88;;;;;;;26.65;34.88;94917.81;5133040;27;20485;-75
2022/07/24 06:08:18;;;;;;;12.90;7.40;;;;;;;26.79;34.52;94915.81;5115474;27;20449;-75
2022/07/24 06:10:44;;;;;;;12.40;7.68;;;;;;;26.80;34.52;94906.75;5126969;27;20405;-76
2022/07/24 06:13:09;;;;;;;15.90;7.40;;;;;;;26.82;34.91;94902.03;5101499;28;20041;-75
2022/07/24 06:15:35;;;;;;;13.85;7.47;;;;;;;26.83;34.89;94899.16;5095280;28;20038;-78
2022/07/24 06:18:01;;;;;;;12.07;7.13;;;;;;;26.88;34.60;94911.78;5082515;27;20393;-74
2022/07/24 06:20:26;;;;;;;9.77;6.60;;;;;;;27.05;34.37;94911.94;5132744;27;20125;-75
2022/07/24 06:22:52;;;;;;;15.50;6.97;;;;;;;27.02;34.85;94905.22;5128678;27;20106;-74
2022/07/24 06:25:17;;;;;;;12.25;6.63;;;;;;;27.09;34.73;94908.63;5133490;27;20019;-75
2022/07/24 06:27:44;;;;;;;14.75;7.25;;;;;;;27.20;34.75;94914.25;5132565;27;20031;-75
2022/07/24 06:30:28;;;;;;;12.73;6.93;;;;;;;27.32;34.08;94915.06;5132415;27;20038;-74
2022/07/24 06:32:55;;;;;;;13.30;7.43;;;;;;;27.52;34.26;94912.91;5129836;27;20025;-75
2022/07/24 06:35:20;;;;;;;11.52;6.28;;;;;;;27.75;34.66;94897.94;5141953;27;20131;-74
2022/07/24 06:37:46;;;;;;;10.65;6.55;;;;;;;27.91;34.64;94896.47;5131320;27;20069;-74
2022/07/24 06:40:12;;;;;;;12.65;6.88;;;;;;;28.15;34.14;94892.75;5114968;27;20049;-74
2022/07/24 06:42:38;;;;;;;11.32;6.68;;;;;;;28.21;33.43;94880.31;5114361;27;20027;-74
2022/07/24 06:45:04;;;;;;;9.60;6.63;;;;;;;28.39;30.39;94892.69;5114947;27;20039;-75
2022/07/24 06:47:29;;;;;;;13.27;7.93;;;;;;;28.48;32.15;94886.78;5122157;27;20492;-75
2022/07/24 06:49:55;;;;;;;16.17;8.15;;;;;;;28.61;33.04;94887.53;5125983;27;20076;-75
2022/07/24 06:52:21;;;;;;;12.27;7.68;;;;;;;28.58;32.69;94880.00;5116732;27;20068;-75
2022/07/24 06:54:46;;;;;;;10.98;7.63;;;;;;;28.74;33.18;94876.56;5114068;27;20651;-75
2022/07/24 06:57:12;;;;;;;11.02;6.90;;;;;;;28.99;30.51;94889.59;5127355;27;20087;-76
2022/07/24 06:59:37;;;;;;;9.63;7.00;;;;;;;29.15;30.00;94882.69;5113505;27;20070;-75
2022/07/24 07:02:03;;;;;;;17.08;6.90;;;;;;;29.34;29.05;94884.09;5131733;27;20030;-75
2022/07/24 07:04:28;;;;;;;13.43;7.47;;;;;;;29.46;29.35;94884.00;5131448;27;20539;-75
2022/07/24 07:06:54;;;;;;;13.52;7.15;;;;;;;29.63;29.84;94884.03;5128764;27;20030;-75
2022/07/24 07:09:19;;;;;;;12.07;8.00;;;;;;;29.70;28.94;94883.84;5129455;27;20035;-75
2022/07/24 07:11:45;;;;;;;16.40;7.78;;;;;;;29.79;29.03;94883.22;5106223;27;20023;-75
2022/07/24 07:14:10;;;;;;;13.75;7.60;;;;;;;29.84;28.17;94883.28;5114845;27;20027;-75
2022/07/24 07:16:36;;;;;;;12.82;6.95;;;;;;;29.88;26.19;94877.44;5076941;28;20023;-75
2022/07/24 07:19:01;;;;;;;13.73;7.45;;;;;;;29.98;26.91;94889.13;5122312;27;20100;-75
2022/07/24 07:21:26;;;;;;;13.63;7.65;;;;;;;30.09;28.23;94883.88;5093131;28;20031;-75
2022/07/24 07:23:52;;;;;;;17.10;7.60;;;;;;;30.15;27.15;94890.94;5119288;27;20047;-75
2022/07/24 07:26:18;;;;;;;16.65;7.53;;;;;;;30.17;27.40;94884.28;5132911;27;20035;-75
2022/07/24 07:28:43;;;;;;;16.00;8.63;;;;;;;30.21;26.74;94888.06;5106229;27;20034;-75
2022/07/24 07:31:09;;;;;;;20.33;10.77;;;;;;;30.27;27.84;94879.06;5122337;27;20389;-75
2022/07/24 07:33:34;;;;;;;35.53;14.13;;;;;;;30.31;28.36;94873.22;5116587;27;20034;-75
2022/07/24 07:36:00;;;;;;;15.57;8.23;;;;;;;30.37;27.66;94877.56;5132259;27;20038;-75
2022/07/24 07:38:25;;;;;;;15.45;8.02;;;;;;;30.44;27.88;94883.56;5108876;27;20054;-75
2022/07/24 07:40:50;;;;;;;19.23;8.13;;;;;;;30.47;28.17;94877.72;5121873;27;20035;-75
2022/07/24 07:43:16;;;;;;;16.05;7.68;;;;;;;30.57;27.60;94880.50;5092984;28;20034;-75
2022/07/24 07:45:41;;;;;;;14.82;8.30;;;;;;;30.71;26.75;94876.38;5130783;27;20053;-75
2022/07/24 07:48:07;;;;;;;17.92;8.40;;;;;;;30.76;26.85;94875.63;5152650;27;20075;-75
2022/07/24 07:50:32;;;;;;;14.88;7.78;;;;;;;30.85;27.41;94874.16;5117574;27;20035;-75
2022/07/24 07:52:58;;;;;;;15.35;8.07;;;;;;;30.89;27.52;94866.41;5111107;28;20023;-75
2022/07/24 07:55:23;;;;;;;12.23;8.30;;;;;;;31.02;26.78;94863.31;5132587;27;20445;-75
2022/07/24 07:57:49;;;;;;;19.08;8.55;;;;;;;31.08;26.64;94866.84;5110144;28;20443;-75
2022/07/24 08:00:15;;;;;;;12.38;8.25;;;;;;;31.04;26.84;94861.19;5120540;27;20047;-75
2022/07/24 08:02:40;;;;;;;14.80;8.90;;;;;;;31.16;26.99;94864.53;5129310;27;20030;-75
2022/07/24 08:05:06;;;;;;;16.38;8.80;;;;;;;31.32;26.98;94873.53;5109461;27;20027;-75
2022/07/24 08:07:32;;;;;;;18.55;9.23;;;;;;;31.39;24.52;94871.44;5112606;27;20034;-75
2022/07/24 08:09:57;;;;;;;14.50;8.68;;;;;;;31.40;25.87;94869.59;5109769;28;20032;-75
2022/07/24 08:12:23;;;;;;;13.75;8.07;;;;;;;31.50;26.79;94866.97;5127126;27;20087;-75
2022/07/24 08:14:48;;;;;;;13.90;8.35;;;;;;;31.65;27.15;94868.97;5131552;27;20493;-75
2022/07/24 08:17:14;;;;;;;14.00;8.60;;;;;;;31.72;27.15;94871.44;5112808;27;20030;-75
2022/07/24 08:19:40;;;;;;;12.77;8.82;;;;;;;31.87;27.02;94876.88;5130215;27;20532;-75
2022/07/24 08:22:05;;;;;;;12.68;9.45;;;;;;;31.94;26.69;94874.84;5131675;27;20076;-75
2022/07/24 08:24:32;;;;;;;14.52;8.95;;;;;;;31.93;26.95;94877.75;5125012;27;20102;-75
2022/07/24 08:26:57;;;;;;;15.68;9.25;;;;;;;31.92;26.92;94876.97;5115460;28;20033;-76
2022/07/24 08:29:23;;;;;;;19.88;9.45;;;;;;;32.00;27.16;94870.28;5109745;28;20032;-76
2022/07/24 08:31:49;;;;;;;19.73;9.52;;;;;;;31.90;27.05;94878.25;5125167;28;20026;-76
2022/07/24 08:34:14;;;;;;;15.15;8.65;;;;;;;31.82;26.11;94882.25;5130163;27;20031;-76
2022/07/24 08:36:40;;;;;;;19.77;9.00;;;;;;;31.41;25.93;94875.78;5126261;27;20048;-75
2022/07/24 08:39:05;;;;;;;13.77;9.00;;;;;;;31.59;26.80;94873.50;5150778;27;20408;-76
2022/07/24 08:41:35;;;;;;;16.92;8.93;;;;;;;31.68;26.65;94864.94;5116313;27;20030;-76
2022/07/24 08:44:01;;;;;;;14.63;9.20;;;;;;;31.81;27.13;94875.25;5133851;27;20419;-76
2022/07/24 08:46:27;;;;;;;21.17;9.73;;;;;;;31.88;27.23;94866.97;5133229;27;20500;-76
2022/07/24 08:48:52;;;;;;;15.55;9.05;;;;;;;31.87;25.69;94871.53;5133502;27;20069;-76
2022/07/24 08:51:18;;;;;;;17.77;9.30;;;;;;;31.84;26.33;94872.03;5133274;27;20460;-76
2022/07/24 08:53:43;;;;;;;16.83;9.32;;;;;;;31.85;27.40;94865.63;5150535;27;20381;-76
2022/07/24 08:56:09;;;;;;;14.48;9.80;;;;;;;31.99;26.90;94869.50;5116044;27;20023;-76
2022/07/24 08:58:37;;;;;;;15.77;9.75;;;;;;;32.01;27.22;94867.38;5150620;27;20468;-76
2022/07/24 09:01:02;;;;;;;12.77;8.70;;;;;;;32.04;27.18;94868.72;5133526;27;20057;-76
2022/07/24 09:03:28;;;;;;;18.40;9.52;;;;;;;32.08;25.88;94875.19;5116024;27;20038;-76
2022/07/24 09:05:57;;;;;;;18.02;9.32;;;;;;;32.11;27.23;94871.97;5150773;27;20079;-76
2022/07/24 09:08:23;;;;;;;19.02;9.20;;;;;;;32.07;26.50;94864.69;5116538;27;20034;-76
2022/07/24 09:10:59;;;;;;;15.65;9.90;;;;;;;32.13;26.95;94877.09;5133508;27;20031;-75
2022/07/24 09:13:25;;;;;;;16.00;9.98;;;;;;;32.13;26.61;94871.72;5133074;27;20109;-76
2022/07/24 09:15:51;;;;;;;16.05;9.77;;;;;;;32.13;26.70;94860.97;5150531;27;20027;-76
2022/07/24 09:18:26;;;;;;;15.38;9.63;;;;;;;32.15;27.68;94853.44;5153541;27;20051;-76
2022/07/24 09:20:52;;;;;;;17.50;9.50;;;;;;;32.23;25.90;94856.47;5154422;27;20430;-76
2022/07/24 09:23:20;;;;;;;16.73;9.23;;;;;;;32.23;25.79;94847.56;5136578;27;20030;-75
2022/07/24 09:25:50;;;;;;;18.08;8.45;;;;;;;32.44;26.52;94851.16;5136726;27;20038;-75
2022/07/24 09:28:16;;;;;;;14.50;8.32;;;;;;;32.58;25.72;94846.94;5119715;27;20511;-75
2022/07/24 09:30:42;;;;;;;19.55;9.23;;;;;;;32.77;26.49;94844.59;5154220;27;20034;-75
2022/07/24 09:33:11;;;;;;;13.80;9.50;;;;;;;32.91;26.91;94850.25;5136518;27;20110;-76
2022/07/24 09:35:47;;;;;;;14.18;9.50;;;;;;;33.02;27.13;94846.53;5155232;27;20527;-76
2022/07/24 09:38:14;;;;;;;13.32;8.70;;;;;;;33.12;26.74;94845.72;5136720;27;20025;-75
2022/07/24 09:40:41;;;;;;;15.90;9.52;;;;;;;33.20;26.10;94847.88;5136872;27;20460;-76
2022/07/24 09:43:23;;;;;;;16.27;9.27;;;;;;;33.31;26.89;94854.88;5153360;27;20039;-76
2022/07/24 09:46:03;;;;;;;16.35;9.35;;;;;;;33.43;26.23;94841.16;5153872;27;20075;-76
2022/07/24 09:48:28;;;;;;;16.55;9.10;;;;;;;33.55;25.66;94844.44;5137455;27;20031;-75
2022/07/24 09:50:56;;;;;;;16.10;9.02;;;;;;;33.55;27.01;94835.56;5153680;27;20126;-76
2022/07/24 09:53:30;;;;;;;14.35;9.23;;;;;;;33.58;25.85;94833.13;5153317;27;20018;-76
2022/07/24 09:56:27;;;;;;;13.82;9.10;;;;;;;33.65;25.90;94838.22;5155026;27;20034;-76
2022/07/24 09:59:07;;;;;;;14.80;8.90;;;;;;;33.66;25.17;94836.34;5134398;27;20042;-76
2022/07/24 10:01:32;;;;;;;17.15;8.80;;;;;;;33.65;26.75;94835.53;5152491;27;20045;-76
2022/07/24 10:04:00;;;;;;;17.63;8.85;;;;;;;33.68;25.68;94826.91;5134418;27;20043;-75
2022/07/24 10:06:26;;;;;;;16.55;8.45;;;;;;;33.68;25.57;94826.91;5135350;27;20038;-76
2022/07/24 10:08:51;;;;;;;16.58;9.00;;;;;;;33.71;26.24;94821.00;5134738;27;20042;-76
2022/07/24 10:11:17;;;;;;;13.55;8.60;;;;;;;33.85;25.51;94823.09;5100500;27;20031;-75
2022/07/24 10:13:43;;;;;;;12.95;8.20;;;;;;;33.85;25.03;94818.53;5117287;27;20035;-76
2022/07/24 10:16:11;;;;;;;15.80;8.43;;;;;;;33.90;25.23;94825.78;5117818;27;20416;-76
2022/07/24 10:18:39;;;;;;;15.27;8.57;;;;;;;33.93;25.26;94826.03;5134282;27;20070;-76
2022/07/24 10:21:10;;;;;;;11.82;8.27;;;;;;;34.03;24.52;94817.13;5152024;27;20027;-76
2022/07/24 10:23:54;;;;;;;15.25;8.25;;;;;;;34.12;23.44;94820.09;5112634;27;20058;-75
2022/07/24 10:26:34;;;;;;;15.40;8.15;;;;;;;34.18;22.64;94817.09;5113176;27;20027;-75
2022/07/24 10:29:11;;;;;;;10.93;8.27;;;;;;;34.20;24.50;94811.44;5130289;27;20050;-75
2022/07/24 10:31:37;;;;;;;14.32;7.65;;;;;;;34.29;24.18;94814.38;5132367;27;20420;-76
2022/07/24 10:34:19;;;;;;;11.80;8.35;;;;;;;34.28;23.39;94812.78;5114868;27;20481;-76
2022/07/24 10:36:54;;;;;;;14.25;7.95;;;;;;;34.32;22.00;94808.41;5114939;27;20030;-75
2022/07/24 10:39:29;;;;;;;12.63;8.73;;;;;;;34.31;23.61;94798.75;5117269;27;20047;-76
2022/07/24 10:42:02;;;;;;;16.85;8.23;;;;;;;34.36;22.86;94804.09;5131982;27;20481;-76
2022/07/24 10:44:28;;;;;;;12.35;7.82;;;;;;;34.42;24.96;94798.41;5114779;27;20515;-76
2022/07/24 10:47:02;;;;;;;12.65;8.57;;;;;;;34.48;22.70;94796.50;5097626;27;20027;-76
2022/07/24 10:49:49;;;;;;;11.90;8.18;;;;;;;34.50;23.74;94794.31;5133360;27;20108;-75
2022/07/24 10:52:23;;;;;;;13.15;8.05;;;;;;;34.50;23.83;94799.72;5131707;27;20031;-76
2022/07/24 10:55:27;;;;;;;9.68;7.78;;;;;;;34.61;21.71;94798.59;5114850;27;20043;-76
2022/07/24 10:58:12;;;;;;;13.48;7.88;;;;;;;34.74;22.89;94793.66;5133018;27;20027;-76
2022/07/24 11:00:40;;;;;;;10.50;8.05;;;;;;;34.81;22.43;94783.38;5131570;27;20051;-75
2022/07/24 11:03:21;;;;;;;12.45;7.82;;;;;;;34.84;21.83;94785.53;5132367;27;20031;-76
2022/07/24 11:06:03;;;;;;;15.35;8.77;;;;;;;34.74;20.72;94777.47;5106080;27;20215;-76
2022/07/24 11:08:33;;;;;;;14.20;7.70;;;;;;;34.87;21.66;94774.16;5135164;27;20393;-75
2022/07/24 11:11:07;;;;;;;10.88;7.88;;;;;;;34.99;21.20;94777.31;5135485;27;20404;-76
2022/07/24 11:13:32;;;;;;;10.50;7.57;;;;;;;35.03;20.58;94770.28;5135580;27;20142;-75
2022/07/24 11:16:10;;;;;;;9.70;7.50;;;;;;;35.10;21.48;94762.69;5153511;27;20517;-76
2022/07/24 11:18:36;;;;;;;11.23;8.20;;;;;;;35.07;20.83;94760.53;5152069;27;20046;-76
2022/07/24 11:21:01;;;;;;;12.15;8.27;;;;;;;35.18;21.98;94755.06;5117343;27;20018;-76
2022/07/24 11:23:27;;;;;;;9.88;8.30;;;;;;;35.36;21.72;94752.47;5151759;27;20037;-76